sensor_id;sensor_type;location;lat;lon;timestamp;P1;durP1;ratioP1;P2;durP2;ratioP2
41512;SDS011;27244;59.940;30.280;2024-01-07T00:00:15;11.02;;;7.22;;
41512;SDS011;27244;59.940;30.280;2024-01-07T00:02:44;11.45;;;7.65;;
41512;SDS011;27244;59.940;30.280;2024-01-07T00:05:12;11.93;;;7.45;;
41512;SDS011;27244;59.940;30.280;2024-01-07T00:07:39;10.57;;;7.10;;
41512;SDS011;27244;59.940;30.280;2024-01-07T00:10:06;10.40;;;7.22;;
41512;SDS011;27244;59.940;30.280;2024-01-07T00:12:34;11.85;;;6.55;;
41512;SDS011;27244;59.940;30.280;2024-01-07T00:15:01;10.00;;;6.75;;
41512;SDS011;27244;59.940;30.280;2024-01-07T00:17:28;10.38;;;6.50;;
41512;SDS011;27244;59.940;30.280;2024-01-07T00:19:56;9.93;;;6.38;;
41512;SDS011;27244;59.940;30.280;2024-01-07T00:22:23;10.07;;;6.70;;
41512;SDS011;27244;59.940;30.280;2024-01-07T00:24:50;9.85;;;6.25;;
41512;SDS011;27244;59.940;30.280;2024-01-07T00:27:18;9.20;;;6.50;;
41512;SDS011;27244;59.940;30.280;2024-01-07T00:29:45;7.70;;;5.60;;
41512;SDS011;27244;59.940;30.280;2024-01-07T00:32:12;9.70;;;6.20;;
41512;SDS011;27244;59.940;30.280;2024-01-07T00:34:40;8.45;;;6.05;;
41512;SDS011;27244;59.940;30.280;2024-01-07T00:37:08;9.73;;;6.03;;
41512;SDS011;27244;59.940;30.280;2024-01-07T00:39:35;6.78;;;5.85;;
41512;SDS011;27244;59.940;30.280;2024-01-07T00:42:03;8.85;;;5.63;;
41512;SDS011;27244;59.940;30.280;2024-01-07T00:44:30;7.40;;;5.47;;
41512;SDS011;27244;59.940;30.280;2024-01-07T00:46:57;7.53;;;5.55;;
41512;SDS011;27244;59.940;30.280;2024-01-07T00:49:24;7.55;;;5.63;;
41512;SDS011;27244;59.940;30.280;2024-01-07T00:51:53;10.35;;;5.78;;
41512;SDS011;27244;59.940;30.280;2024-01-07T00:54:22;8.35;;;5.90;;
41512;SDS011;27244;59.940;30.280;2024-01-07T00:56:49;11.00;;;5.57;;
41512;SDS011;27244;59.940;30.280;2024-01-07T00:59:16;6.10;;;4.60;;
41512;SDS011;27244;59.940;30.280;2024-01-07T01:01:43;6.40;;;4.90;;
41512;SDS011;27244;59.940;30.280;2024-01-07T01:04:10;8.63;;;5.22;;
41512;SDS011;27244;59.940;30.280;2024-01-07T01:06:37;7.05;;;5.03;;
41512;SDS011;27244;59.940;30.280;2024-01-07T01:09:04;7.10;;;4.88;;
41512;SDS011;27244;59.940;30.280;2024-01-07T01:11:32;5.88;;;4.80;;
41512;SDS011;27244;59.940;30.280;2024-01-07T01:13:59;5.60;;;4.55;;
41512;SDS011;27244;59.940;30.280;2024-01-07T01:16:26;10.00;;;5.38;;
41512;SDS011;27244;59.940;30.280;2024-01-07T01:18:53;7.20;;;5.22;;
41512;SDS011;27244;59.940;30.280;2024-01-07T01:21:20;8.20;;;4.55;;
41512;SDS011;27244;59.940;30.280;2024-01-07T01:23:48;7.38;;;4.25;;
41512;SDS011;27244;59.940;30.280;2024-01-07T01:26:15;8.10;;;4.65;;
41512;SDS011;27244;59.940;30.280;2024-01-07T01:28:43;7.75;;;5.07;;
41512;SDS011;27244;59.940;30.280;2024-01-07T01:31:12;6.80;;;4.50;;
41512;SDS011;27244;59.940;30.280;2024-01-07T01:33:40;5.90;;;4.50;;
41512;SDS011;27244;59.940;30.280;2024-01-07T01:36:08;6.28;;;4.70;;
41512;SDS011;27244;59.940;30.280;2024-01-07T01:38:35;5.60;;;4.32;;
41512;SDS011;27244;59.940;30.280;2024-01-07T01:41:02;7.18;;;3.75;;
41512;SDS011;27244;59.940;30.280;2024-01-07T01:43:29;5.30;;;4.00;;
41512;SDS011;27244;59.940;30.280;2024-01-07T01:45:58;5.07;;;4.22;;
41512;SDS011;27244;59.940;30.280;2024-01-07T01:48:26;5.25;;;4.00;;
41512;SDS011;27244;59.940;30.280;2024-01-07T01:50:54;6.45;;;4.03;;
41512;SDS011;27244;59.940;30.280;2024-01-07T01:53:23;6.60;;;4.50;;
41512;SDS011;27244;59.940;30.280;2024-01-07T01:55:52;7.32;;;4.30;;
41512;SDS011;27244;59.940;30.280;2024-01-07T01:58:21;5.72;;;4.28;;
41512;SDS011;27244;59.940;30.280;2024-01-07T02:00:49;4.97;;;4.05;;
41512;SDS011;27244;59.940;30.280;2024-01-07T02:03:18;6.45;;;4.40;;
41512;SDS011;27244;59.940;30.280;2024-01-07T02:05:45;5.50;;;4.43;;
41512;SDS011;27244;59.940;30.280;2024-01-07T02:08:15;4.53;;;3.42;;
41512;SDS011;27244;59.940;30.280;2024-01-07T02:10:42;5.68;;;3.97;;
41512;SDS011;27244;59.940;30.280;2024-01-07T02:13:10;4.05;;;3.28;;
41512;SDS011;27244;59.940;30.280;2024-01-07T02:15:37;4.65;;;3.92;;
41512;SDS011;27244;59.940;30.280;2024-01-07T02:18:04;5.15;;;3.60;;
41512;SDS011;27244;59.940;30.280;2024-01-07T02:20:33;5.28;;;3.15;;
41512;SDS011;27244;59.940;30.280;2024-01-07T02:23:01;5.05;;;3.45;;
41512;SDS011;27244;59.940;30.280;2024-01-07T02:25:29;4.70;;;3.70;;
41512;SDS011;27244;59.940;30.280;2024-01-07T02:28:01;4.43;;;3.85;;
41512;SDS011;27244;59.940;30.280;2024-01-07T02:30:28;4.70;;;3.88;;
41512;SDS011;27244;59.940;30.280;2024-01-07T02:32:55;5.22;;;3.72;;
41512;SDS011;27244;59.940;30.280;2024-01-07T02:35:23;4.22;;;3.63;;
41512;SDS011;27244;59.940;30.280;2024-01-07T02:37:50;4.57;;;3.53;;
41512;SDS011;27244;59.940;30.280;2024-01-07T02:40:17;4.45;;;3.33;;
41512;SDS011;27244;59.940;30.280;2024-01-07T02:42:45;4.65;;;3.45;;
41512;SDS011;27244;59.940;30.280;2024-01-07T02:45:12;4.07;;;3.55;;
41512;SDS011;27244;59.940;30.280;2024-01-07T02:47:39;4.50;;;3.38;;
41512;SDS011;27244;59.940;30.280;2024-01-07T02:50:07;4.95;;;3.70;;
41512;SDS011;27244;59.940;30.280;2024-01-07T02:52:34;4.07;;;3.67;;
41512;SDS011;27244;59.940;30.280;2024-01-07T02:55:01;4.25;;;3.75;;
41512;SDS011;27244;59.940;30.280;2024-01-07T02:57:28;5.03;;;3.30;;
41512;SDS011;27244;59.940;30.280;2024-01-07T02:59:56;3.85;;;3.45;;
41512;SDS011;27244;59.940;30.280;2024-01-07T03:02:23;6.20;;;3.58;;
41512;SDS011;27244;59.940;30.280;2024-01-07T03:04:50;3.83;;;3.15;;
41512;SDS011;27244;59.940;30.280;2024-01-07T03:07:18;3.92;;;3.17;;
41512;SDS011;27244;59.940;30.280;2024-01-07T03:09:44;5.68;;;3.08;;
41512;SDS011;27244;59.940;30.280;2024-01-07T03:12:12;7.35;;;3.28;;
41512;SDS011;27244;59.940;30.280;2024-01-07T03:14:39;4.35;;;3.42;;
41512;SDS011;27244;59.940;30.280;2024-01-07T03:17:08;4.38;;;3.13;;
41512;SDS011;27244;59.940;30.280;2024-01-07T03:19:36;3.90;;;3.00;;
41512;SDS011;27244;59.940;30.280;2024-01-07T03:22:04;3.58;;;2.95;;
41512;SDS011;27244;59.940;30.280;2024-01-07T03:24:32;3.92;;;3.15;;
41512;SDS011;27244;59.940;30.280;2024-01-07T03:26:59;3.92;;;3.47;;
41512;SDS011;27244;59.940;30.280;2024-01-07T03:29:26;3.85;;;3.45;;
41512;SDS011;27244;59.940;30.280;2024-01-07T03:31:53;4.32;;;3.53;;
41512;SDS011;27244;59.940;30.280;2024-01-07T03:34:22;6.43;;;3.45;;
41512;SDS011;27244;59.940;30.280;2024-01-07T03:36:49;4.80;;;3.83;;
41512;SDS011;27244;59.940;30.280;2024-01-07T03:39:16;5.05;;;3.42;;
41512;SDS011;27244;59.940;30.280;2024-01-07T03:41:43;5.03;;;3.63;;
41512;SDS011;27244;59.940;30.280;2024-01-07T03:44:10;5.88;;;3.55;;
41512;SDS011;27244;59.940;30.280;2024-01-07T03:46:37;5.05;;;3.83;;
41512;SDS011;27244;59.940;30.280;2024-01-07T03:49:04;5.20;;;4.00;;
41512;SDS011;27244;59.940;30.280;2024-01-07T03:51:33;4.63;;;3.80;;
41512;SDS011;27244;59.940;30.280;2024-01-07T03:54:00;4.90;;;4.00;;
41512;SDS011;27244;59.940;30.280;2024-01-07T03:56:27;5.55;;;3.97;;
41512;SDS011;27244;59.940;30.280;2024-01-07T03:58:54;5.50;;;3.72;;
41512;SDS011;27244;59.940;30.280;2024-01-07T04:01:21;4.20;;;3.80;;
41512;SDS011;27244;59.940;30.280;2024-01-07T04:03:48;4.38;;;3.70;;
41512;SDS011;27244;59.940;30.280;2024-01-07T04:06:15;4.28;;;3.75;;
41512;SDS011;27244;59.940;30.280;2024-01-07T04:08:43;4.53;;;4.00;;
41512;SDS011;27244;59.940;30.280;2024-01-07T04:11:10;5.45;;;4.10;;
41512;SDS011;27244;59.940;30.280;2024-01-07T04:13:37;4.43;;;3.83;;
41512;SDS011;27244;59.940;30.280;2024-01-07T04:16:04;4.93;;;4.05;;
41512;SDS011;27244;59.940;30.280;2024-01-07T04:18:32;4.78;;;4.00;;
41512;SDS011;27244;59.940;30.280;2024-01-07T04:20:59;4.68;;;4.07;;
41512;SDS011;27244;59.940;30.280;2024-01-07T04:23:26;5.10;;;4.43;;
41512;SDS011;27244;59.940;30.280;2024-01-07T04:25:55;4.22;;;3.72;;
41512;SDS011;27244;59.940;30.280;2024-01-07T04:28:22;4.53;;;3.75;;
41512;SDS011;27244;59.940;30.280;2024-01-07T04:30:49;4.60;;;4.13;;
41512;SDS011;27244;59.940;30.280;2024-01-07T04:33:16;3.97;;;3.58;;
41512;SDS011;27244;59.940;30.280;2024-01-07T04:35:43;3.92;;;3.50;;
41512;SDS011;27244;59.940;30.280;2024-01-07T04:38:10;4.18;;;3.47;;
41512;SDS011;27244;59.940;30.280;2024-01-07T04:40:37;4.47;;;3.85;;
41512;SDS011;27244;59.940;30.280;2024-01-07T04:43:05;3.88;;;3.47;;
41512;SDS011;27244;59.940;30.280;2024-01-07T04:45:32;4.80;;;4.00;;
41512;SDS011;27244;59.940;30.280;2024-01-07T04:47:59;4.03;;;3.63;;
41512;SDS011;27244;59.940;30.280;2024-01-07T04:50:26;3.92;;;3.53;;
41512;SDS011;27244;59.940;30.280;2024-01-07T04:52:53;3.47;;;3.17;;
41512;SDS011;27244;59.940;30.280;2024-01-07T04:55:20;3.85;;;3.20;;
41512;SDS011;27244;59.940;30.280;2024-01-07T04:57:46;6.47;;;3.55;;
41512;SDS011;27244;59.940;30.280;2024-01-07T05:00:15;4.03;;;3.20;;
41512;SDS011;27244;59.940;30.280;2024-01-07T05:02:43;4.05;;;3.30;;
41512;SDS011;27244;59.940;30.280;2024-01-07T05:05:10;3.97;;;3.35;;
41512;SDS011;27244;59.940;30.280;2024-01-07T05:07:37;4.22;;;3.53;;
41512;SDS011;27244;59.940;30.280;2024-01-07T05:10:05;4.20;;;3.63;;
41512;SDS011;27244;59.940;30.280;2024-01-07T05:12:32;4.93;;;3.22;;
41512;SDS011;27244;59.940;30.280;2024-01-07T05:14:59;4.10;;;3.65;;
41512;SDS011;27244;59.940;30.280;2024-01-07T05:17:28;4.38;;;3.08;;
41512;SDS011;27244;59.940;30.280;2024-01-07T05:19:55;5.18;;;2.92;;
41512;SDS011;27244;59.940;30.280;2024-01-07T05:22:23;3.72;;;3.10;;
41512;SDS011;27244;59.940;30.280;2024-01-07T05:24:50;3.35;;;3.00;;
41512;SDS011;27244;59.940;30.280;2024-01-07T05:27:17;3.75;;;3.30;;
41512;SDS011;27244;59.940;30.280;2024-01-07T05:29:44;4.05;;;3.28;;
41512;SDS011;27244;59.940;30.280;2024-01-07T05:32:12;4.45;;;2.80;;
41512;SDS011;27244;59.940;30.280;2024-01-07T05:34:41;3.80;;;3.15;;
41512;SDS011;27244;59.940;30.280;2024-01-07T05:37:08;5.30;;;3.33;;
41512;SDS011;27244;59.940;30.280;2024-01-07T05:39:35;3.38;;;3.08;;
41512;SDS011;27244;59.940;30.280;2024-01-07T05:42:02;3.80;;;2.90;;
41512;SDS011;27244;59.940;30.280;2024-01-07T05:44:29;3.20;;;2.88;;
41512;SDS011;27244;59.940;30.280;2024-01-07T05:46:56;3.55;;;2.67;;
41512;SDS011;27244;59.940;30.280;2024-01-07T05:49:23;3.33;;;2.80;;
41512;SDS011;27244;59.940;30.280;2024-01-07T05:51:52;3.38;;;2.78;;
41512;SDS011;27244;59.940;30.280;2024-01-07T05:54:19;3.03;;;2.72;;
41512;SDS011;27244;59.940;30.280;2024-01-07T05:56:47;3.05;;;2.75;;
41512;SDS011;27244;59.940;30.280;2024-01-07T05:59:14;2.90;;;2.42;;
41512;SDS011;27244;59.940;30.280;2024-01-07T06:01:42;3.00;;;2.50;;
41512;SDS011;27244;59.940;30.280;2024-01-07T06:04:09;4.13;;;2.55;;
41512;SDS011;27244;59.940;30.280;2024-01-07T06:06:36;4.30;;;2.50;;
41512;SDS011;27244;59.940;30.280;2024-01-07T06:09:04;3.65;;;2.75;;
41512;SDS011;27244;59.940;30.280;2024-01-07T06:11:32;2.92;;;2.63;;
41512;SDS011;27244;59.940;30.280;2024-01-07T06:13:59;2.83;;;2.42;;
41512;SDS011;27244;59.940;30.280;2024-01-07T06:16:26;2.55;;;2.25;;
41512;SDS011;27244;59.940;30.280;2024-01-07T06:18:53;5.85;;;2.72;;
41512;SDS011;27244;59.940;30.280;2024-01-07T06:21:20;2.83;;;2.45;;
41512;SDS011;27244;59.940;30.280;2024-01-07T06:23:47;5.57;;;2.38;;
41512;SDS011;27244;59.940;30.280;2024-01-07T06:26:16;3.45;;;2.70;;
41512;SDS011;27244;59.940;30.280;2024-01-07T06:28:43;2.72;;;2.45;;
41512;SDS011;27244;59.940;30.280;2024-01-07T06:31:10;3.25;;;2.50;;
41512;SDS011;27244;59.940;30.280;2024-01-07T06:33:37;2.63;;;2.20;;
41512;SDS011;27244;59.940;30.280;2024-01-07T06:36:04;2.85;;;2.47;;
41512;SDS011;27244;59.940;30.280;2024-01-07T06:38:32;3.45;;;2.30;;
41512;SDS011;27244;59.940;30.280;2024-01-07T06:40:59;4.10;;;2.58;;
41512;SDS011;27244;59.940;30.280;2024-01-07T06:43:30;2.95;;;2.25;;
41512;SDS011;27244;59.940;30.280;2024-01-07T06:45:57;2.78;;;2.50;;
41512;SDS011;27244;59.940;30.280;2024-01-07T06:48:24;2.67;;;2.20;;
41512;SDS011;27244;59.940;30.280;2024-01-07T06:50:51;2.70;;;2.15;;
41512;SDS011;27244;59.940;30.280;2024-01-07T06:53:18;3.00;;;2.55;;
41512;SDS011;27244;59.940;30.280;2024-01-07T06:55:46;3.10;;;2.50;;
41512;SDS011;27244;59.940;30.280;2024-01-07T06:58:13;3.15;;;2.50;;
41512;SDS011;27244;59.940;30.280;2024-01-07T07:00:42;4.65;;;2.40;;
41512;SDS011;27244;59.940;30.280;2024-01-07T07:03:09;2.90;;;2.40;;
41512;SDS011;27244;59.940;30.280;2024-01-07T07:05:36;3.22;;;2.42;;
41512;SDS011;27244;59.940;30.280;2024-01-07T07:08:04;2.50;;;2.13;;
41512;SDS011;27244;59.940;30.280;2024-01-07T07:10:31;2.88;;;2.08;;
41512;SDS011;27244;59.940;30.280;2024-01-07T07:12:58;2.25;;;2.00;;
41512;SDS011;27244;59.940;30.280;2024-01-07T07:15:25;2.80;;;2.20;;
41512;SDS011;27244;59.940;30.280;2024-01-07T07:17:55;2.40;;;2.10;;
41512;SDS011;27244;59.940;30.280;2024-01-07T07:20:22;3.10;;;2.40;;
41512;SDS011;27244;59.940;30.280;2024-01-07T07:22:49;3.63;;;1.98;;
41512;SDS011;27244;59.940;30.280;2024-01-07T07:25:16;2.83;;;2.22;;
41512;SDS011;27244;59.940;30.280;2024-01-07T07:27:44;3.75;;;2.00;;
41512;SDS011;27244;59.940;30.280;2024-01-07T07:30:12;2.72;;;2.20;;
41512;SDS011;27244;59.940;30.280;2024-01-07T07:32:39;2.55;;;2.10;;
41512;SDS011;27244;59.940;30.280;2024-01-07T07:35:09;2.53;;;1.95;;
41512;SDS011;27244;59.940;30.280;2024-01-07T07:37:36;2.65;;;2.17;;
41512;SDS011;27244;59.940;30.280;2024-01-07T07:40:04;2.78;;;2.28;;
41512;SDS011;27244;59.940;30.280;2024-01-07T07:42:32;2.22;;;1.88;;
41512;SDS011;27244;59.940;30.280;2024-01-07T07:44:59;3.53;;;2.05;;
41512;SDS011;27244;59.940;30.280;2024-01-07T07:47:27;2.97;;;2.10;;
41512;SDS011;27244;59.940;30.280;2024-01-07T07:49:54;3.03;;;2.35;;
41512;SDS011;27244;59.940;30.280;2024-01-07T07:52:23;2.35;;;1.85;;
41512;SDS011;27244;59.940;30.280;2024-01-07T07:54:51;2.65;;;1.95;;
41512;SDS011;27244;59.940;30.280;2024-01-07T07:57:18;3.03;;;2.22;;
41512;SDS011;27244;59.940;30.280;2024-01-07T07:59:46;2.67;;;2.10;;
41512;SDS011;27244;59.940;30.280;2024-01-07T08:02:13;3.05;;;2.22;;
41512;SDS011;27244;59.940;30.280;2024-01-07T08:04:40;3.08;;;2.50;;
41512;SDS011;27244;59.940;30.280;2024-01-07T08:07:07;4.53;;;2.75;;
41512;SDS011;27244;59.940;30.280;2024-01-07T08:09:36;4.53;;;3.08;;
41512;SDS011;27244;59.940;30.280;2024-01-07T08:12:03;4.60;;;3.63;;
41512;SDS011;27244;59.940;30.280;2024-01-07T08:14:32;5.00;;;4.38;;
41512;SDS011;27244;59.940;30.280;2024-01-07T08:16:59;6.85;;;4.50;;
41512;SDS011;27244;59.940;30.280;2024-01-07T08:19:26;8.45;;;5.35;;
41512;SDS011;27244;59.940;30.280;2024-01-07T08:21:53;7.85;;;5.65;;
41512;SDS011;27244;59.940;30.280;2024-01-07T08:24:21;7.07;;;6.03;;
41512;SDS011;27244;59.940;30.280;2024-01-07T08:26:50;9.80;;;6.00;;
41512;SDS011;27244;59.940;30.280;2024-01-07T08:29:17;8.63;;;6.85;;
41512;SDS011;27244;59.940;30.280;2024-01-07T08:31:44;8.73;;;6.60;;
41512;SDS011;27244;59.940;30.280;2024-01-07T08:34:11;8.68;;;6.68;;
41512;SDS011;27244;59.940;30.280;2024-01-07T08:36:38;6.85;;;6.00;;
41512;SDS011;27244;59.940;30.280;2024-01-07T08:39:05;7.18;;;6.20;;
41512;SDS011;27244;59.940;30.280;2024-01-07T08:41:33;8.43;;;6.63;;
41512;SDS011;27244;59.940;30.280;2024-01-07T08:44:01;9.57;;;7.05;;
41512;SDS011;27244;59.940;30.280;2024-01-07T08:46:28;8.57;;;7.38;;
41512;SDS011;27244;59.940;30.280;2024-01-07T08:48:56;8.65;;;6.35;;
41512;SDS011;27244;59.940;30.280;2024-01-07T08:51:23;8.77;;;6.18;;
41512;SDS011;27244;59.940;30.280;2024-01-07T08:53:50;8.30;;;6.47;;
41512;SDS011;27244;59.940;30.280;2024-01-07T08:56:17;12.63;;;7.00;;
41512;SDS011;27244;59.940;30.280;2024-01-07T08:58:44;6.97;;;6.13;;
41512;SDS011;27244;59.940;30.280;2024-01-07T09:01:13;8.10;;;6.22;;
41512;SDS011;27244;59.940;30.280;2024-01-07T09:03:40;7.63;;;6.50;;
41512;SDS011;27244;59.940;30.280;2024-01-07T09:06:07;6.95;;;6.25;;
41512;SDS011;27244;59.940;30.280;2024-01-07T09:08:34;8.23;;;6.40;;
41512;SDS011;27244;59.940;30.280;2024-01-07T09:11:03;7.72;;;6.70;;
41512;SDS011;27244;59.940;30.280;2024-01-07T09:13:31;7.82;;;6.63;;
41512;SDS011;27244;59.940;30.280;2024-01-07T09:15:57;7.68;;;6.38;;
41512;SDS011;27244;59.940;30.280;2024-01-07T09:18:26;8.27;;;6.15;;
41512;SDS011;27244;59.940;30.280;2024-01-07T09:20:53;7.18;;;6.47;;
41512;SDS011;27244;59.940;30.280;2024-01-07T09:23:20;9.15;;;7.25;;
41512;SDS011;27244;59.940;30.280;2024-01-07T09:25:47;10.38;;;7.47;;
41512;SDS011;27244;59.940;30.280;2024-01-07T09:28:14;11.02;;;7.57;;
41512;SDS011;27244;59.940;30.280;2024-01-07T09:30:42;9.38;;;7.85;;
41512;SDS011;27244;59.940;30.280;2024-01-07T09:33:09;8.57;;;7.43;;
41512;SDS011;27244;59.940;30.280;2024-01-07T09:35:37;10.23;;;7.53;;
41512;SDS011;27244;59.940;30.280;2024-01-07T09:38:04;9.93;;;7.75;;
41512;SDS011;27244;59.940;30.280;2024-01-07T09:40:31;8.65;;;7.25;;
41512;SDS011;27244;59.940;30.280;2024-01-07T09:42:59;9.25;;;7.13;;
41512;SDS011;27244;59.940;30.280;2024-01-07T09:45:26;11.73;;;7.30;;
41512;SDS011;27244;59.940;30.280;2024-01-07T09:47:55;12.20;;;7.45;;
41512;SDS011;27244;59.940;30.280;2024-01-07T09:50:22;9.07;;;7.07;;
41512;SDS011;27244;59.940;30.280;2024-01-07T09:52:53;7.20;;;6.43;;
41512;SDS011;27244;59.940;30.280;2024-01-07T09:55:26;7.80;;;6.57;;
41512;SDS011;27244;59.940;30.280;2024-01-07T09:58:00;7.43;;;6.65;;
41512;SDS011;27244;59.940;30.280;2024-01-07T10:00:28;7.72;;;6.93;;
41512;SDS011;27244;59.940;30.280;2024-01-07T10:02:55;9.02;;;6.60;;
41512;SDS011;27244;59.940;30.280;2024-01-07T10:05:22;11.13;;;7.50;;
41512;SDS011;27244;59.940;30.280;2024-01-07T10:07:49;10.88;;;7.07;;
41512;SDS011;27244;59.940;30.280;2024-01-07T10:10:21;9.52;;;6.55;;
41512;SDS011;27244;59.940;30.280;2024-01-07T10:12:48;7.57;;;6.57;;
41512;SDS011;27244;59.940;30.280;2024-01-07T10:15:18;7.57;;;6.75;;
41512;SDS011;27244;59.940;30.280;2024-01-07T10:17:45;11.50;;;6.95;;
41512;SDS011;27244;59.940;30.280;2024-01-07T10:20:14;7.07;;;6.38;;
41512;SDS011;27244;59.940;30.280;2024-01-07T10:22:46;6.45;;;5.65;;
41512;SDS011;27244;59.940;30.280;2024-01-07T10:25:18;7.25;;;6.47;;
41512;SDS011;27244;59.940;30.280;2024-01-07T10:27:48;9.30;;;6.82;;
41512;SDS011;27244;59.940;30.280;2024-01-07T10:30:15;7.82;;;6.50;;
41512;SDS011;27244;59.940;30.280;2024-01-07T10:32:48;9.57;;;7.22;;
41512;SDS011;27244;59.940;30.280;2024-01-07T10:35:15;8.85;;;6.95;;
41512;SDS011;27244;59.940;30.280;2024-01-07T10:37:44;7.72;;;6.40;;
41512;SDS011;27244;59.940;30.280;2024-01-07T10:40:11;6.65;;;6.00;;
41512;SDS011;27244;59.940;30.280;2024-01-07T10:42:40;16.38;;;7.13;;
41512;SDS011;27244;59.940;30.280;2024-01-07T10:45:10;7.53;;;6.32;;
41512;SDS011;27244;59.940;30.280;2024-01-07T10:47:37;9.35;;;6.80;;
41512;SDS011;27244;59.940;30.280;2024-01-07T10:50:07;8.45;;;6.63;;
41512;SDS011;27244;59.940;30.280;2024-01-07T10:52:38;7.70;;;5.80;;
41512;SDS011;27244;59.940;30.280;2024-01-07T10:55:08;15.18;;;6.53;;
41512;SDS011;27244;59.940;30.280;2024-01-07T10:57:41;11.60;;;6.22;;
41512;SDS011;27244;59.940;30.280;2024-01-07T11:00:14;11.77;;;6.25;;
41512;SDS011;27244;59.940;30.280;2024-01-07T11:02:57;6.13;;;5.53;;
41512;SDS011;27244;59.940;30.280;2024-01-07T11:05:33;12.05;;;6.22;;
41512;SDS011;27244;59.940;30.280;2024-01-07T11:08:05;8.55;;;5.70;;
41512;SDS011;27244;59.940;30.280;2024-01-07T11:10:39;11.13;;;6.38;;
41512;SDS011;27244;59.940;30.280;2024-01-07T11:13:11;7.38;;;5.72;;
41512;SDS011;27244;59.940;30.280;2024-01-07T11:15:58;5.78;;;5.18;;
41512;SDS011;27244;59.940;30.280;2024-01-07T11:18:26;6.35;;;4.88;;
41512;SDS011;27244;59.940;30.280;2024-01-07T11:20:58;8.38;;;5.38;;
41512;SDS011;27244;59.940;30.280;2024-01-07T11:23:28;6.15;;;5.55;;
41512;SDS011;27244;59.940;30.280;2024-01-07T11:26:03;6.65;;;5.10;;
41512;SDS011;27244;59.940;30.280;2024-01-07T11:31:15;5.57;;;5.07;;
41512;SDS011;27244;59.940;30.280;2024-01-07T11:33:43;5.75;;;5.15;;
41512;SDS011;27244;59.940;30.280;2024-01-07T11:36:14;6.78;;;5.28;;
41512;SDS011;27244;59.940;30.280;2024-01-07T11:38:42;6.53;;;4.70;;
41512;SDS011;27244;59.940;30.280;2024-01-07T11:41:11;7.45;;;4.70;;
41512;SDS011;27244;59.940;30.280;2024-01-07T11:46:24;6.13;;;4.88;;
41512;SDS011;27244;59.940;30.280;2024-01-07T11:48:53;7.03;;;4.93;;
41512;SDS011;27244;59.940;30.280;2024-01-07T11:51:24;4.97;;;4.35;;
41512;SDS011;27244;59.940;30.280;2024-01-07T11:53:51;5.38;;;4.65;;
41512;SDS011;27244;59.940;30.280;2024-01-07T11:56:19;6.60;;;4.15;;
41512;SDS011;27244;59.940;30.280;2024-01-07T11:58:46;4.78;;;4.10;;
41512;SDS011;27244;59.940;30.280;2024-01-07T12:01:15;5.00;;;4.20;;
41512;SDS011;27244;59.940;30.280;2024-01-07T12:03:43;6.35;;;4.13;;
41512;SDS011;27244;59.940;30.280;2024-01-07T12:06:10;4.78;;;3.97;;
41512;SDS011;27244;59.940;30.280;2024-01-07T12:08:39;5.78;;;3.90;;
41512;SDS011;27244;59.940;30.280;2024-01-07T12:11:06;4.95;;;3.90;;
41512;SDS011;27244;59.940;30.280;2024-01-07T12:13:34;4.10;;;3.50;;
41512;SDS011;27244;59.940;30.280;2024-01-07T12:16:02;5.18;;;3.65;;
41512;SDS011;27244;59.940;30.280;2024-01-07T12:18:31;4.53;;;4.13;;
41512;SDS011;27244;59.940;30.280;2024-01-07T12:20:59;5.07;;;3.60;;
41512;SDS011;27244;59.940;30.280;2024-01-07T12:23:26;6.13;;;3.80;;
41512;SDS011;27244;59.940;30.280;2024-01-07T12:25:54;3.97;;;3.50;;
41512;SDS011;27244;59.940;30.280;2024-01-07T12:28:33;4.90;;;3.40;;
41512;SDS011;27244;59.940;30.280;2024-01-07T12:31:00;3.70;;;3.40;;
41512;SDS011;27244;59.940;30.280;2024-01-07T12:33:27;3.95;;;3.40;;
41512;SDS011;27244;59.940;30.280;2024-01-07T12:35:57;3.78;;;3.38;;
41512;SDS011;27244;59.940;30.280;2024-01-07T12:38:25;4.32;;;3.45;;
41512;SDS011;27244;59.940;30.280;2024-01-07T12:40:52;6.40;;;3.75;;
41512;SDS011;27244;59.940;30.280;2024-01-07T12:43:20;5.32;;;3.53;;
41512;SDS011;27244;59.940;30.280;2024-01-07T12:45:48;4.47;;;3.40;;
41512;SDS011;27244;59.940;30.280;2024-01-07T12:48:15;4.85;;;3.22;;
41512;SDS011;27244;59.940;30.280;2024-01-07T12:50:42;4.32;;;2.85;;
41512;SDS011;27244;59.940;30.280;2024-01-07T12:53:11;3.70;;;2.90;;
41512;SDS011;27244;59.940;30.280;2024-01-07T12:55:38;3.80;;;2.90;;
41512;SDS011;27244;59.940;30.280;2024-01-07T12:58:06;3.45;;;2.88;;
41512;SDS011;27244;59.940;30.280;2024-01-07T13:00:33;4.32;;;2.88;;
41512;SDS011;27244;59.940;30.280;2024-01-07T13:03:01;3.30;;;2.65;;
41512;SDS011;27244;59.940;30.280;2024-01-07T13:05:29;2.95;;;2.65;;
41512;SDS011;27244;59.940;30.280;2024-01-07T13:07:58;4.32;;;3.10;;
41512;SDS011;27244;59.940;30.280;2024-01-07T13:10:27;3.85;;;2.97;;
41512;SDS011;27244;59.940;30.280;2024-01-07T13:12:54;3.85;;;2.60;;
41512;SDS011;27244;59.940;30.280;2024-01-07T13:15:21;4.10;;;2.50;;
41512;SDS011;27244;59.940;30.280;2024-01-07T13:17:49;3.03;;;2.45;;
41512;SDS011;27244;59.940;30.280;2024-01-07T13:20:16;4.00;;;2.70;;
41512;SDS011;27244;59.940;30.280;2024-01-07T13:22:45;3.28;;;2.53;;
41512;SDS011;27244;59.940;30.280;2024-01-07T13:25:12;3.15;;;2.40;;
41512;SDS011;27244;59.940;30.280;2024-01-07T13:27:41;3.38;;;2.63;;
41512;SDS011;27244;59.940;30.280;2024-01-07T13:30:09;3.15;;;2.65;;
41512;SDS011;27244;59.940;30.280;2024-01-07T13:32:36;3.25;;;2.35;;
41512;SDS011;27244;59.940;30.280;2024-01-07T13:35:04;2.78;;;2.33;;
41512;SDS011;27244;59.940;30.280;2024-01-07T13:37:32;2.25;;;1.90;;
41512;SDS011;27244;59.940;30.280;2024-01-07T13:39:59;2.60;;;2.40;;
41512;SDS011;27244;59.940;30.280;2024-01-07T13:42:26;2.83;;;2.10;;
41512;SDS011;27244;59.940;30.280;2024-01-07T13:44:54;2.78;;;2.40;;
41512;SDS011;27244;59.940;30.280;2024-01-07T13:47:21;2.40;;;2.20;;
41512;SDS011;27244;59.940;30.280;2024-01-07T13:49:51;2.80;;;2.38;;
41512;SDS011;27244;59.940;30.280;2024-01-07T13:52:18;3.35;;;2.20;;
41512;SDS011;27244;59.940;30.280;2024-01-07T13:54:50;2.90;;;2.40;;
41512;SDS011;27244;59.940;30.280;2024-01-07T13:57:17;3.13;;;2.40;;
41512;SDS011;27244;59.940;30.280;2024-01-07T13:59:45;2.70;;;1.90;;
41512;SDS011;27244;59.940;30.280;2024-01-07T14:02:14;2.42;;;2.10;;
41512;SDS011;27244;59.940;30.280;2024-01-07T14:04:44;2.58;;;1.98;;
41512;SDS011;27244;59.940;30.280;2024-01-07T14:07:11;2.42;;;1.90;;
41512;SDS011;27244;59.940;30.280;2024-01-07T14:09:39;3.00;;;2.40;;
41512;SDS011;27244;59.940;30.280;2024-01-07T14:12:06;3.03;;;2.20;;
41512;SDS011;27244;59.940;30.280;2024-01-07T14:14:33;2.13;;;1.88;;
41512;SDS011;27244;59.940;30.280;2024-01-07T14:17:00;3.53;;;2.38;;
41512;SDS011;27244;59.940;30.280;2024-01-07T14:19:29;2.92;;;2.35;;
41512;SDS011;27244;59.940;30.280;2024-01-07T14:21:56;3.05;;;2.15;;
41512;SDS011;27244;59.940;30.280;2024-01-07T14:24:23;2.85;;;2.13;;
41512;SDS011;27244;59.940;30.280;2024-01-07T14:26:51;2.63;;;2.13;;
41512;SDS011;27244;59.940;30.280;2024-01-07T14:29:18;2.80;;;2.40;;
41512;SDS011;27244;59.940;30.280;2024-01-07T14:31:48;2.70;;;2.20;;
41512;SDS011;27244;59.940;30.280;2024-01-07T14:34:19;2.88;;;2.58;;
41512;SDS011;27244;59.940;30.280;2024-01-07T14:36:47;3.67;;;2.60;;
41512;SDS011;27244;59.940;30.280;2024-01-07T14:39:14;3.03;;;2.45;;
41512;SDS011;27244;59.940;30.280;2024-01-07T14:41:42;3.58;;;2.60;;